sensor_id;sensor_type;location;lat;lon;timestamp;P1;durP1;ratioP1;P2;durP2;ratioP2
3683;SDS011;1858;48.716;9.648;2024-01-11T00:01:52;25.70;;;12.73;;
3683;SDS011;1858;48.716;9.648;2024-01-11T00:04:21;39.20;;;15.60;;
3683;SDS011;1858;48.716;9.648;2024-01-11T00:06:49;38.63;;;15.30;;
3683;SDS011;1858;48.716;9.648;2024-01-11T00:09:18;28.33;;;12.33;;
3683;SDS011;1858;48.716;9.648;2024-01-11T00:11:46;18.77;;;14.87;;
3683;SDS011;1858;48.716;9.648;2024-01-11T00:14:15;20.60;;;12.00;;
3683;SDS011;1858;48.716;9.648;2024-01-11T00:16:44;34.83;;;15.73;;
3683;SDS011;1858;48.716;9.648;2024-01-11T00:19:12;19.63;;;11.60;;
3683;SDS011;1858;48.716;9.648;2024-01-11T00:21:40;19.50;;;12.10;;
3683;SDS011;1858;48.716;9.648;2024-01-11T00:24:09;25.20;;;13.60;;
3683;SDS011;1858;48.716;9.648;2024-01-11T00:26:37;34.47;;;16.67;;
3683;SDS011;1858;48.716;9.648;2024-01-11T00:29:05;26.60;;;10.80;;
3683;SDS011;1858;48.716;9.648;2024-01-11T00:31:34;28.00;;;15.80;;
3683;SDS011;1858;48.716;9.648;2024-01-11T00:34:04;26.97;;;13.20;;
3683;SDS011;1858;48.716;9.648;2024-01-11T00:36:32;26.93;;;12.33;;
3683;SDS011;1858;48.716;9.648;2024-01-11T00:39:01;28.97;;;10.83;;
3683;SDS011;1858;48.716;9.648;2024-01-11T00:41:29;29.90;;;12.17;;
3683;SDS011;1858;48.716;9.648;2024-01-11T00:43:58;29.30;;;12.90;;
3683;SDS011;1858;48.716;9.648;2024-01-11T00:46:27;20.13;;;11.27;;
3683;SDS011;1858;48.716;9.648;2024-01-11T00:48:55;27.80;;;13.73;;
3683;SDS011;1858;48.716;9.648;2024-01-11T00:51:24;22.43;;;11.70;;
3683;SDS011;1858;48.716;9.648;2024-01-11T00:53:52;26.67;;;13.90;;
3683;SDS011;1858;48.716;9.648;2024-01-11T00:56:21;28.17;;;15.70;;
3683;SDS011;1858;48.716;9.648;2024-01-11T00:58:49;39.47;;;13.60;;
3683;SDS011;1858;48.716;9.648;2024-01-11T01:01:18;30.07;;;13.77;;
3683;SDS011;1858;48.716;9.648;2024-01-11T01:03:46;26.83;;;13.57;;
3683;SDS011;1858;48.716;9.648;2024-01-11T01:06:15;20.10;;;10.90;;
3683;SDS011;1858;48.716;9.648;2024-01-11T01:08:43;26.13;;;12.97;;
3683;SDS011;1858;48.716;9.648;2024-01-11T01:11:12;24.07;;;13.90;;
3683;SDS011;1858;48.716;9.648;2024-01-11T01:13:40;32.07;;;14.80;;
3683;SDS011;1858;48.716;9.648;2024-01-11T01:16:09;32.55;;;13.50;;
3683;SDS011;1858;48.716;9.648;2024-01-11T01:18:37;31.17;;;14.03;;
3683;SDS011;1858;48.716;9.648;2024-01-11T01:33:23;27.00;;;12.50;;
3683;SDS011;1858;48.716;9.648;2024-01-11T01:35:52;22.53;;;13.17;;
3683;SDS011;1858;48.716;9.648;2024-01-11T01:38:20;30.77;;;13.67;;
3683;SDS011;1858;48.716;9.648;2024-01-11T01:40:49;28.60;;;15.13;;
3683;SDS011;1858;48.716;9.648;2024-01-11T01:43:17;35.97;;;13.73;;
3683;SDS011;1858;48.716;9.648;2024-01-11T01:45:45;24.53;;;15.27;;
3683;SDS011;1858;48.716;9.648;2024-01-11T01:48:15;27.83;;;13.50;;
3683;SDS011;1858;48.716;9.648;2024-01-11T01:53:13;19.80;;;10.90;;
3683;SDS011;1858;48.716;9.648;2024-01-11T01:55:41;33.97;;;13.87;;
3683;SDS011;1858;48.716;9.648;2024-01-11T01:58:10;24.73;;;13.20;;
3683;SDS011;1858;48.716;9.648;2024-01-11T02:00:38;27.03;;;14.77;;
3683;SDS011;1858;48.716;9.648;2024-01-11T02:03:08;26.67;;;13.47;;
3683;SDS011;1858;48.716;9.648;2024-01-11T02:05:37;19.10;;;9.73;;
3683;SDS011;1858;48.716;9.648;2024-01-11T02:08:06;23.70;;;14.27;;
3683;SDS011;1858;48.716;9.648;2024-01-11T02:10:38;33.60;;;16.25;;
3683;SDS011;1858;48.716;9.648;2024-01-11T02:13:06;24.27;;;12.47;;
3683;SDS011;1858;48.716;9.648;2024-01-11T02:15:35;21.43;;;12.47;;
3683;SDS011;1858;48.716;9.648;2024-01-11T02:18:03;24.83;;;13.87;;
3683;SDS011;1858;48.716;9.648;2024-01-11T02:20:32;36.87;;;14.13;;
3683;SDS011;1858;48.716;9.648;2024-01-11T02:23:05;23.93;;;12.40;;
3683;SDS011;1858;48.716;9.648;2024-01-11T02:25:36;34.90;;;15.50;;
3683;SDS011;1858;48.716;9.648;2024-01-11T02:28:04;27.93;;;15.63;;
3683;SDS011;1858;48.716;9.648;2024-01-11T02:30:34;23.97;;;13.73;;
3683;SDS011;1858;48.716;9.648;2024-01-11T02:33:03;22.00;;;13.20;;
3683;SDS011;1858;48.716;9.648;2024-01-11T02:35:32;23.73;;;11.87;;
3683;SDS011;1858;48.716;9.648;2024-01-11T02:38:04;32.20;;;14.60;;
3683;SDS011;1858;48.716;9.648;2024-01-11T02:43:13;24.45;;;12.00;;
3683;SDS011;1858;48.716;9.648;2024-01-11T02:45:37;27.57;;;14.00;;
3683;SDS011;1858;48.716;9.648;2024-01-11T02:50:57;19.70;;;10.60;;
3683;SDS011;1858;48.716;9.648;2024-01-11T02:53:26;26.43;;;12.80;;
3683;SDS011;1858;48.716;9.648;2024-01-11T02:55:54;31.43;;;14.10;;
3683;SDS011;1858;48.716;9.648;2024-01-11T02:58:23;26.33;;;12.70;;
3683;SDS011;1858;48.716;9.648;2024-01-11T03:00:51;30.10;;;14.00;;
3683;SDS011;1858;48.716;9.648;2024-01-11T03:03:20;19.75;;;12.15;;
3683;SDS011;1858;48.716;9.648;2024-01-11T03:05:48;32.57;;;17.90;;
3683;SDS011;1858;48.716;9.648;2024-01-11T03:08:16;23.27;;;12.93;;
3683;SDS011;1858;48.716;9.648;2024-01-11T03:10:45;25.67;;;11.83;;
3683;SDS011;1858;48.716;9.648;2024-01-11T03:13:13;26.53;;;11.90;;
3683;SDS011;1858;48.716;9.648;2024-01-11T03:18:30;24.70;;;14.13;;
3683;SDS011;1858;48.716;9.648;2024-01-11T03:20:58;28.10;;;11.70;;
3683;SDS011;1858;48.716;9.648;2024-01-11T03:28:22;28.37;;;13.17;;
3683;SDS011;1858;48.716;9.648;2024-01-11T03:30:50;36.53;;;13.77;;
3683;SDS011;1858;48.716;9.648;2024-01-11T03:33:18;18.20;;;11.47;;
3683;SDS011;1858;48.716;9.648;2024-01-11T03:35:47;26.77;;;15.47;;
3683;SDS011;1858;48.716;9.648;2024-01-11T03:38:15;22.37;;;11.50;;
3683;SDS011;1858;48.716;9.648;2024-01-11T03:40:44;24.73;;;12.90;;
3683;SDS011;1858;48.716;9.648;2024-01-11T03:43:12;22.50;;;12.40;;
3683;SDS011;1858;48.716;9.648;2024-01-11T03:48:09;21.87;;;11.10;;
3683;SDS011;1858;48.716;9.648;2024-01-11T03:50:38;24.70;;;13.30;;
3683;SDS011;1858;48.716;9.648;2024-01-11T03:53:06;20.20;;;10.30;;
3683;SDS011;1858;48.716;9.648;2024-01-11T03:55:35;22.00;;;10.57;;
3683;SDS011;1858;48.716;9.648;2024-01-11T03:58:03;27.37;;;13.23;;
3683;SDS011;1858;48.716;9.648;2024-01-11T04:00:31;25.83;;;13.43;;
3683;SDS011;1858;48.716;9.648;2024-01-11T04:03:00;29.63;;;16.03;;
3683;SDS011;1858;48.716;9.648;2024-01-11T04:05:28;24.13;;;13.43;;
3683;SDS011;1858;48.716;9.648;2024-01-11T04:07:57;22.50;;;11.93;;
3683;SDS011;1858;48.716;9.648;2024-01-11T04:10:25;29.83;;;11.87;;
3683;SDS011;1858;48.716;9.648;2024-01-11T04:12:54;22.90;;;11.50;;
3683;SDS011;1858;48.716;9.648;2024-01-11T04:15:22;35.90;;;17.80;;
3683;SDS011;1858;48.716;9.648;2024-01-11T04:17:51;35.80;;;20.68;;
3683;SDS011;1858;48.716;9.648;2024-01-11T04:20:19;40.80;;;17.40;;
3683;SDS011;1858;48.716;9.648;2024-01-11T04:22:47;26.47;;;15.00;;
3683;SDS011;1858;48.716;9.648;2024-01-11T04:25:16;32.20;;;14.40;;
3683;SDS011;1858;48.716;9.648;2024-01-11T04:27:50;35.35;;;16.75;;
3683;SDS011;1858;48.716;9.648;2024-01-11T04:32:46;26.17;;;13.67;;
3683;SDS011;1858;48.716;9.648;2024-01-11T04:35:14;37.15;;;17.90;;
3683;SDS011;1858;48.716;9.648;2024-01-11T04:40:10;26.20;;;13.07;;
3683;SDS011;1858;48.716;9.648;2024-01-11T04:42:39;40.17;;;17.30;;
3683;SDS011;1858;48.716;9.648;2024-01-11T04:45:07;28.10;;;11.90;;
3683;SDS011;1858;48.716;9.648;2024-01-11T04:47:36;25.00;;;11.67;;
3683;SDS011;1858;48.716;9.648;2024-01-11T04:50:05;29.47;;;16.20;;
3683;SDS011;1858;48.716;9.648;2024-01-11T04:52:34;21.03;;;13.60;;
3683;SDS011;1858;48.716;9.648;2024-01-11T04:55:02;26.53;;;13.83;;
3683;SDS011;1858;48.716;9.648;2024-01-11T04:57:31;21.00;;;13.50;;
3683;SDS011;1858;48.716;9.648;2024-01-11T05:00:00;26.57;;;13.13;;
3683;SDS011;1858;48.716;9.648;2024-01-11T05:02:28;25.30;;;12.37;;
3683;SDS011;1858;48.716;9.648;2024-01-11T05:04:56;41.10;;;14.47;;
3683;SDS011;1858;48.716;9.648;2024-01-11T05:07:26;26.47;;;12.83;;
3683;SDS011;1858;48.716;9.648;2024-01-11T05:09:55;21.40;;;13.40;;
3683;SDS011;1858;48.716;9.648;2024-01-11T05:12:23;22.77;;;11.33;;
3683;SDS011;1858;48.716;9.648;2024-01-11T05:14:52;28.83;;;10.37;;
3683;SDS011;1858;48.716;9.648;2024-01-11T05:17:20;33.00;;;14.77;;
3683;SDS011;1858;48.716;9.648;2024-01-11T05:19:49;26.33;;;13.60;;
3683;SDS011;1858;48.716;9.648;2024-01-11T05:22:17;27.13;;;15.30;;
3683;SDS011;1858;48.716;9.648;2024-01-11T05:24:46;26.40;;;11.63;;
3683;SDS011;1858;48.716;9.648;2024-01-11T05:27:14;41.30;;;15.47;;
3683;SDS011;1858;48.716;9.648;2024-01-11T05:29:43;31.20;;;14.43;;
3683;SDS011;1858;48.716;9.648;2024-01-11T05:32:11;29.80;;;17.00;;
3683;SDS011;1858;48.716;9.648;2024-01-11T05:34:39;38.10;;;17.12;;
3683;SDS011;1858;48.716;9.648;2024-01-11T05:37:08;39.83;;;20.92;;
3683;SDS011;1858;48.716;9.648;2024-01-11T05:39:36;37.65;;;19.73;;
3683;SDS011;1858;48.716;9.648;2024-01-11T05:42:05;39.87;;;19.97;;
3683;SDS011;1858;48.716;9.648;2024-01-11T05:44:34;37.55;;;19.40;;
3683;SDS011;1858;48.716;9.648;2024-01-11T05:47:04;37.10;;;19.45;;
3683;SDS011;1858;48.716;9.648;2024-01-11T05:49:32;35.03;;;19.03;;
3683;SDS011;1858;48.716;9.648;2024-01-11T05:52:00;40.38;;;20.50;;
3683;SDS011;1858;48.716;9.648;2024-01-11T05:54:29;36.15;;;17.98;;
3683;SDS011;1858;48.716;9.648;2024-01-11T05:56:57;40.17;;;20.68;;
3683;SDS011;1858;48.716;9.648;2024-01-11T05:59:26;35.98;;;19.40;;
3683;SDS011;1858;48.716;9.648;2024-01-11T06:01:54;43.30;;;20.95;;
3683;SDS011;1858;48.716;9.648;2024-01-11T06:14:16;47.23;;;22.90;;
3683;SDS011;1858;48.716;9.648;2024-01-11T06:16:44;41.60;;;22.87;;
3683;SDS011;1858;48.716;9.648;2024-01-11T06:19:13;41.90;;;20.85;;
3683;SDS011;1858;48.716;9.648;2024-01-11T06:21:41;46.08;;;23.35;;
3683;SDS011;1858;48.716;9.648;2024-01-11T06:29:24;38.65;;;18.82;;
3683;SDS011;1858;48.716;9.648;2024-01-11T06:31:53;36.30;;;19.87;;
3683;SDS011;1858;48.716;9.648;2024-01-11T06:34:21;40.55;;;19.30;;
3683;SDS011;1858;48.716;9.648;2024-01-11T06:36:49;42.45;;;21.40;;
3683;SDS011;1858;48.716;9.648;2024-01-11T06:39:19;43.48;;;19.52;;
3683;SDS011;1858;48.716;9.648;2024-01-11T06:41:47;37.80;;;18.70;;
3683;SDS011;1858;48.716;9.648;2024-01-11T07:03:58;39.90;;;20.17;;
3683;SDS011;1858;48.716;9.648;2024-01-11T07:06:26;39.53;;;18.73;;
3683;SDS011;1858;48.716;9.648;2024-01-11T07:08:54;45.00;;;21.55;;
3683;SDS011;1858;48.716;9.648;2024-01-11T07:11:23;40.45;;;19.45;;
3683;SDS011;1858;48.716;9.648;2024-01-11T07:13:51;34.63;;;18.77;;
3683;SDS011;1858;48.716;9.648;2024-01-11T07:16:20;36.53;;;21.27;;
3683;SDS011;1858;48.716;9.648;2024-01-11T07:18:49;40.50;;;20.20;;
3683;SDS011;1858;48.716;9.648;2024-01-11T07:24:00;40.35;;;19.70;;
3683;SDS011;1858;48.716;9.648;2024-01-11T07:26:29;44.90;;;19.70;;
3683;SDS011;1858;48.716;9.648;2024-01-11T07:34:12;41.80;;;20.10;;
3683;SDS011;1858;48.716;9.648;2024-01-11T07:36:41;47.73;;;21.60;;
3683;SDS011;1858;48.716;9.648;2024-01-11T07:39:09;43.20;;;22.00;;
3683;SDS011;1858;48.716;9.648;2024-01-11T07:41:37;45.87;;;21.23;;
3683;SDS011;1858;48.716;9.648;2024-01-11T07:44:06;47.90;;;21.90;;
3683;SDS011;1858;48.716;9.648;2024-01-11T07:46:34;34.90;;;19.60;;
3683;SDS011;1858;48.716;9.648;2024-01-11T07:49:03;35.40;;;17.85;;
3683;SDS011;1858;48.716;9.648;2024-01-11T07:51:32;43.00;;;21.17;;
3683;SDS011;1858;48.716;9.648;2024-01-11T07:54:02;45.40;;;19.30;;
3683;SDS011;1858;48.716;9.648;2024-01-11T07:56:31;39.10;;;20.77;;
3683;SDS011;1858;48.716;9.648;2024-01-11T07:59:00;43.42;;;20.12;;
3683;SDS011;1858;48.716;9.648;2024-01-11T08:01:28;42.83;;;20.85;;
3683;SDS011;1858;48.716;9.648;2024-01-11T08:06:24;37.17;;;20.62;;
3683;SDS011;1858;48.716;9.648;2024-01-11T08:08:52;35.08;;;18.27;;
3683;SDS011;1858;48.716;9.648;2024-01-11T08:11:21;38.95;;;20.12;;
3683;SDS011;1858;48.716;9.648;2024-01-11T08:13:49;38.88;;;20.75;;
3683;SDS011;1858;48.716;9.648;2024-01-11T08:16:19;37.20;;;19.30;;
3683;SDS011;1858;48.716;9.648;2024-01-11T08:18:47;44.80;;;21.17;;
3683;SDS011;1858;48.716;9.648;2024-01-11T08:21:16;37.58;;;20.82;;
3683;SDS011;1858;48.716;9.648;2024-01-11T08:23:44;36.00;;;20.47;;
3683;SDS011;1858;48.716;9.648;2024-01-11T08:26:15;40.58;;;19.98;;
3683;SDS011;1858;48.716;9.648;2024-01-11T08:28:45;40.45;;;20.60;;
3683;SDS011;1858;48.716;9.648;2024-01-11T08:31:13;36.23;;;19.65;;
3683;SDS011;1858;48.716;9.648;2024-01-11T08:33:42;36.93;;;19.80;;
3683;SDS011;1858;48.716;9.648;2024-01-11T08:36:10;36.80;;;19.50;;
3683;SDS011;1858;48.716;9.648;2024-01-11T08:38:39;36.33;;;20.35;;
3683;SDS011;1858;48.716;9.648;2024-01-11T08:41:07;42.73;;;21.17;;
3683;SDS011;1858;48.716;9.648;2024-01-11T08:43:36;40.25;;;20.45;;
3683;SDS011;1858;48.716;9.648;2024-01-11T08:51:01;38.10;;;21.37;;
3683;SDS011;1858;48.716;9.648;2024-01-11T08:53:29;40.43;;;21.02;;
3683;SDS011;1858;48.716;9.648;2024-01-11T08:55:57;37.17;;;20.92;;
3683;SDS011;1858;48.716;9.648;2024-01-11T09:25:30;45.27;;;23.00;;
3683;SDS011;1858;48.716;9.648;2024-01-11T09:27:58;48.20;;;23.87;;
3683;SDS011;1858;48.716;9.648;2024-01-11T09:33:15;41.87;;;21.80;;
3683;SDS011;1858;48.716;9.648;2024-01-11T09:35:43;36.20;;;20.50;;
3683;SDS011;1858;48.716;9.648;2024-01-11T09:38:11;41.05;;;21.65;;
3683;SDS011;1858;48.716;9.648;2024-01-11T09:40:40;38.83;;;21.85;;
3683;SDS011;1858;48.716;9.648;2024-01-11T09:43:08;39.25;;;21.73;;
3683;SDS011;1858;48.716;9.648;2024-01-11T09:50:33;36.30;;;21.20;;
3683;SDS011;1858;48.716;9.648;2024-01-11T09:53:03;39.10;;;22.70;;
3683;SDS011;1858;48.716;9.648;2024-01-11T09:55:34;35.13;;;21.35;;
3683;SDS011;1858;48.716;9.648;2024-01-11T09:58:03;31.60;;;20.40;;
3683;SDS011;1858;48.716;9.648;2024-01-11T10:00:33;37.58;;;21.97;;
3683;SDS011;1858;48.716;9.648;2024-01-11T10:03:02;38.27;;;22.30;;
3683;SDS011;1858;48.716;9.648;2024-01-11T10:05:31;37.35;;;22.02;;
3683;SDS011;1858;48.716;9.648;2024-01-11T10:08:02;36.87;;;23.10;;
3683;SDS011;1858;48.716;9.648;2024-01-11T10:10:31;32.83;;;21.87;;
3683;SDS011;1858;48.716;9.648;2024-01-11T10:12:59;35.60;;;21.42;;
3683;SDS011;1858;48.716;9.648;2024-01-11T10:15:28;36.33;;;21.85;;
3683;SDS011;1858;48.716;9.648;2024-01-11T10:17:56;37.05;;;22.85;;
3683;SDS011;1858;48.716;9.648;2024-01-11T10:20:25;36.23;;;21.50;;
3683;SDS011;1858;48.716;9.648;2024-01-11T10:22:56;32.10;;;21.30;;
3683;SDS011;1858;48.716;9.648;2024-01-11T10:25:25;38.87;;;22.40;;
3683;SDS011;1858;48.716;9.648;2024-01-11T10:27:55;34.80;;;23.27;;
3683;SDS011;1858;48.716;9.648;2024-01-11T10:30:24;36.13;;;22.70;;
3683;SDS011;1858;48.716;9.648;2024-01-11T10:32:52;36.05;;;22.60;;
3683;SDS011;1858;48.716;9.648;2024-01-11T10:35:21;37.13;;;23.00;;
3683;SDS011;1858;48.716;9.648;2024-01-11T10:37:51;37.10;;;23.80;;
3683;SDS011;1858;48.716;9.648;2024-01-11T10:40:20;32.93;;;22.05;;
3683;SDS011;1858;48.716;9.648;2024-01-11T10:42:51;37.20;;;22.10;;
3683;SDS011;1858;48.716;9.648;2024-01-11T10:45:20;38.87;;;22.20;;
3683;SDS011;1858;48.716;9.648;2024-01-11T10:48:01;40.65;;;23.98;;
3683;SDS011;1858;48.716;9.648;2024-01-11T10:50:26;38.28;;;23.05;;
3683;SDS011;1858;48.716;9.648;2024-01-11T10:53:12;39.35;;;21.93;;
3683;SDS011;1858;48.716;9.648;2024-01-11T10:55:55;33.20;;;19.52;;
3683;SDS011;1858;48.716;9.648;2024-01-11T10:58:25;33.63;;;21.05;;
3683;SDS011;1858;48.716;9.648;2024-01-11T11:00:54;38.85;;;21.55;;
3683;SDS011;1858;48.716;9.648;2024-01-11T11:03:23;40.80;;;22.45;;
3683;SDS011;1858;48.716;9.648;2024-01-11T11:05:53;41.18;;;22.60;;
3683;SDS011;1858;48.716;9.648;2024-01-11T11:08:24;37.17;;;20.80;;
3683;SDS011;1858;48.716;9.648;2024-01-11T11:10:57;38.83;;;21.93;;
3683;SDS011;1858;48.716;9.648;2024-01-11T11:13:27;36.85;;;21.00;;
3683;SDS011;1858;48.716;9.648;2024-01-11T11:15:55;38.45;;;22.15;;
3683;SDS011;1858;48.716;9.648;2024-01-11T11:18:24;36.70;;;19.77;;
3683;SDS011;1858;48.716;9.648;2024-01-11T11:20:53;41.13;;;21.60;;
3683;SDS011;1858;48.716;9.648;2024-01-11T11:23:22;38.48;;;21.33;;
3683;SDS011;1858;48.716;9.648;2024-01-11T11:25:50;36.35;;;20.97;;
3683;SDS011;1858;48.716;9.648;2024-01-11T11:28:23;36.80;;;21.52;;
3683;SDS011;1858;48.716;9.648;2024-01-11T11:30:53;37.58;;;21.62;;
3683;SDS011;1858;48.716;9.648;2024-01-11T11:33:24;38.25;;;22.45;;
3683;SDS011;1858;48.716;9.648;2024-01-11T11:35:53;37.93;;;21.10;;
3683;SDS011;1858;48.716;9.648;2024-01-11T11:38:25;38.13;;;22.00;;
3683;SDS011;1858;48.716;9.648;2024-01-11T11:40:56;42.53;;;22.02;;
3683;SDS011;1858;48.716;9.648;2024-01-11T11:43:27;41.10;;;21.57;;
3683;SDS011;1858;48.716;9.648;2024-01-11T11:45:56;38.30;;;20.88;;
3683;SDS011;1858;48.716;9.648;2024-01-11T11:51:21;39.92;;;21.52;;
3683;SDS011;1858;48.716;9.648;2024-01-11T11:53:51;38.53;;;21.87;;
3683;SDS011;1858;48.716;9.648;2024-01-11T11:56:20;41.37;;;22.35;;
3683;SDS011;1858;48.716;9.648;2024-01-11T11:58:50;37.60;;;21.53;;
3683;SDS011;1858;48.716;9.648;2024-01-11T12:01:20;41.23;;;21.62;;
3683;SDS011;1858;48.716;9.648;2024-01-11T12:03:49;35.83;;;21.45;;
3683;SDS011;1858;48.716;9.648;2024-01-11T12:06:18;35.60;;;19.80;;
3683;SDS011;1858;48.716;9.648;2024-01-11T12:08:49;37.78;;;21.65;;
3683;SDS011;1858;48.716;9.648;2024-01-11T12:11:20;36.95;;;20.60;;
3683;SDS011;1858;48.716;9.648;2024-01-11T12:13:50;41.25;;;22.48;;
3683;SDS011;1858;48.716;9.648;2024-01-11T12:16:20;37.15;;;20.43;;
3683;SDS011;1858;48.716;9.648;2024-01-11T12:18:49;42.08;;;21.80;;
3683;SDS011;1858;48.716;9.648;2024-01-11T12:21:18;38.75;;;20.70;;
3683;SDS011;1858;48.716;9.648;2024-01-11T12:23:47;35.13;;;20.68;;
3683;SDS011;1858;48.716;9.648;2024-01-11T12:26:15;41.80;;;21.60;;
3683;SDS011;1858;48.716;9.648;2024-01-11T12:28:46;42.35;;;22.02;;
3683;SDS011;1858;48.716;9.648;2024-01-11T12:31:14;39.67;;;22.10;;
3683;SDS011;1858;48.716;9.648;2024-01-11T12:33:46;35.65;;;21.15;;
3683;SDS011;1858;48.716;9.648;2024-01-11T12:36:15;39.58;;;20.92;;
3683;SDS011;1858;48.716;9.648;2024-01-11T12:38:47;35.30;;;20.20;;
3683;SDS011;1858;48.716;9.648;2024-01-11T12:41:15;33.18;;;19.82;;
3683;SDS011;1858;48.716;9.648;2024-01-11T12:43:44;37.28;;;21.23;;
3683;SDS011;1858;48.716;9.648;2024-01-11T12:46:12;40.05;;;21.52;;
3683;SDS011;1858;48.716;9.648;2024-01-11T12:48:41;36.15;;;21.68;;
3683;SDS011;1858;48.716;9.648;2024-01-11T12:51:10;35.88;;;20.25;;
3683;SDS011;1858;48.716;9.648;2024-01-11T12:53:38;37.33;;;20.32;;
3683;SDS011;1858;48.716;9.648;2024-01-11T12:56:07;33.90;;;20.23;;
3683;SDS011;1858;48.716;9.648;2024-01-11T12:58:37;36.53;;;20.85;;
3683;SDS011;1858;48.716;9.648;2024-01-11T13:01:05;39.33;;;20.37;;
3683;SDS011;1858;48.716;9.648;2024-01-11T13:03:35;44.80;;;22.58;;
3683;SDS011;1858;48.716;9.648;2024-01-11T13:06:05;38.17;;;21.10;;
3683;SDS011;1858;48.716;9.648;2024-01-11T13:08:35;37.50;;;20.08;;
3683;SDS011;1858;48.716;9.648;2024-01-11T13:11:04;35.60;;;19.40;;
3683;SDS011;1858;48.716;9.648;2024-01-11T13:16:21;37.80;;;20.25;;
3683;SDS011;1858;48.716;9.648;2024-01-11T13:18:52;36.38;;;20.90;;
3683;SDS011;1858;48.716;9.648;2024-01-11T13:21:20;33.33;;;19.55;;
3683;SDS011;1858;48.716;9.648;2024-01-11T13:23:49;37.87;;;21.47;;
3683;SDS011;1858;48.716;9.648;2024-01-11T13:26:17;38.20;;;21.20;;
3683;SDS011;1858;48.716;9.648;2024-01-11T13:28:46;40.65;;;20.20;;
3683;SDS011;1858;48.716;9.648;2024-01-11T13:31:14;38.90;;;20.08;;
3683;SDS011;1858;48.716;9.648;2024-01-11T13:33:42;37.20;;;21.12;;
3683;SDS011;1858;48.716;9.648;2024-01-11T13:36:11;39.98;;;20.05;;
3683;SDS011;1858;48.716;9.648;2024-01-11T13:38:39;41.25;;;20.60;;
3683;SDS011;1858;48.716;9.648;2024-01-11T13:41:08;35.17;;;19.17;;
3683;SDS011;1858;48.716;9.648;2024-01-11T13:43:42;29.55;;;17.87;;
3683;SDS011;1858;48.716;9.648;2024-01-11T13:46:06;36.70;;;20.92;;
3683;SDS011;1858;48.716;9.648;2024-01-11T13:48:35;37.20;;;18.80;;
3683;SDS011;1858;48.716;9.648;2024-01-11T13:51:04;33.35;;;19.85;;
3683;SDS011;1858;48.716;9.648;2024-01-11T13:53:34;34.25;;;20.82;;
3683;SDS011;1858;48.716;9.648;2024-01-11T13:56:02;37.58;;;19.90;;
3683;SDS011;1858;48.716;9.648;2024-01-11T13:58:31;38.63;;;20.40;;
3683;SDS011;1858;48.716;9.648;2024-01-11T14:00:59;35.63;;;20.30;;
3683;SDS011;1858;48.716;9.648;2024-01-11T14:03:28;38.80;;;21.10;;
3683;SDS011;1858;48.716;9.648;2024-01-11T14:05:57;36.30;;;20.05;;
3683;SDS011;1858;48.716;9.648;2024-01-11T14:08:26;38.35;;;20.40;;
3683;SDS011;1858;48.716;9.648;2024-01-11T14:10:54;36.33;;;20.03;;
3683;SDS011;1858;48.716;9.648;2024-01-11T14:13:22;40.07;;;21.03;;
3683;SDS011;1858;48.716;9.648;2024-01-11T14:15:51;39.78;;;21.65;;
3683;SDS011;1858;48.716;9.648;2024-01-11T14:18:20;41.85;;;21.07;;
3683;SDS011;1858;48.716;9.648;2024-01-11T14:20:51;35.17;;;20.73;;
3683;SDS011;1858;48.716;9.648;2024-01-11T14:23:20;36.30;;;20.50;;
3683;SDS011;1858;48.716;9.648;2024-01-11T14:25:48;30.85;;;19.35;;
3683;SDS011;1858;48.716;9.648;2024-01-11T14:28:17;38.28;;;21.10;;
3683;SDS011;1858;48.716;9.648;2024-01-11T14:30:45;39.13;;;20.47;;
3683;SDS011;1858;48.716;9.648;2024-01-11T14:33:15;35.50;;;19.73;;
3683;SDS011;1858;48.716;9.648;2024-01-11T14:35:44;33.92;;;19.15;;
3683;SDS011;1858;48.716;9.648;2024-01-11T14:38:12;39.83;;;20.62;;
3683;SDS011;1858;48.716;9.648;2024-01-11T14:40:41;42.10;;;20.63;;
3683;SDS011;1858;48.716;9.648;2024-01-11T14:43:09;33.95;;;19.42;;
3683;SDS011;1858;48.716;9.648;2024-01-11T14:45:38;34.73;;;19.07;;
3683;SDS011;1858;48.716;9.648;2024-01-11T14:48:06;33.47;;;19.43;;
3683;SDS011;1858;48.716;9.648;2024-01-11T14:50:35;32.45;;;18.10;;
3683;SDS011;1858;48.716;9.648;2024-01-11T14:53:03;36.77;;;19.85;;
3683;SDS011;1858;48.716;9.648;2024-01-11T14:55:32;36.77;;;20.08;;
3683;SDS011;1858;48.716;9.648;2024-01-11T14:58:01;41.90;;;21.67;;
3683;SDS011;1858;48.716;9.648;2024-01-11T15:00:31;35.63;;;21.02;;
3683;SDS011;1858;48.716;9.648;2024-01-11T15:03:00;37.08;;;20.27;;
3683;SDS011;1858;48.716;9.648;2024-01-11T15:05:28;36.25;;;21.68;;
3683;SDS011;1858;48.716;9.648;2024-01-11T15:07:58;38.55;;;21.65;;
3683;SDS011;1858;48.716;9.648;2024-01-11T15:10:26;36.30;;;21.20;;
3683;SDS011;1858;48.716;9.648;2024-01-11T15:12:55;42.88;;;20.92;;
3683;SDS011;1858;48.716;9.648;2024-01-11T15:15:23;39.65;;;21.60;;
3683;SDS011;1858;48.716;9.648;2024-01-11T15:17:52;39.48;;;21.23;;
3683;SDS011;1858;48.716;9.648;2024-01-11T15:20:21;36.53;;;21.45;;
3683;SDS011;1858;48.716;9.648;2024-01-11T15:22:49;38.58;;;22.07;;
3683;SDS011;1858;48.716;9.648;2024-01-11T15:25:18;38.53;;;21.50;;
3683;SDS011;1858;48.716;9.648;2024-01-11T15:27:47;45.35;;;21.75;;
3683;SDS011;1858;48.716;9.648;2024-01-11T15:30:15;35.30;;;20.72;;
3683;SDS011;1858;48.716;9.648;2024-01-11T15:32:44;38.95;;;21.10;;
3683;SDS011;1858;48.716;9.648;2024-01-11T15:35:12;38.30;;;21.97;;
3683;SDS011;1858;48.716;9.648;2024-01-11T15:37:41;44.33;;;23.50;;
3683;SDS011;1858;48.716;9.648;2024-01-11T15:40:09;41.77;;;22.55;;
3683;SDS011;1858;48.716;9.648;2024-01-11T15:42:38;44.60;;;22.85;;
3683;SDS011;1858;48.716;9.648;2024-01-11T15:45:07;41.50;;;22.50;;
3683;SDS011;1858;48.716;9.648;2024-01-11T15:47:37;42.20;;;22.60;;
3683;SDS011;1858;48.716;9.648;2024-01-11T15:50:05;43.20;;;23.30;;
3683;SDS011;1858;48.716;9.648;2024-01-11T15:52:37;42.65;;;22.90;;
3683;SDS011;1858;48.716;9.648;2024-01-11T15:55:06;39.08;;;21.85;;
3683;SDS011;1858;48.716;9.648;2024-01-11T15:57:35;50.23;;;22.42;;
3683;SDS011;1858;48.716;9.648;2024-01-11T16:00:04;39.92;;;21.77;;
3683;SDS011;1858;48.716;9.648;2024-01-11T16:02:35;41.28;;;22.00;;
3683;SDS011;1858;48.716;9.648;2024-01-11T16:05:05;41.68;;;22.32;;
3683;SDS011;1858;48.716;9.648;2024-01-11T16:07:33;58.52;;;31.95;;
3683;SDS011;1858;48.716;9.648;2024-01-11T16:10:02;73.15;;;37.75;;
3683;SDS011;1858;48.716;9.648;2024-01-11T16:12:32;63.28;;;29.95;;
3683;SDS011;1858;48.716;9.648;2024-01-11T16:15:00;42.15;;;22.73;;
3683;SDS011;1858;48.716;9.648;2024-01-11T16:17:29;48.65;;;24.82;;
3683;SDS011;1858;48.716;9.648;2024-01-11T16:19:57;43.42;;;24.77;;
3683;SDS011;1858;48.716;9.648;2024-01-11T16:25:13;43.17;;;22.80;;
3683;SDS011;1858;48.716;9.648;2024-01-11T16:27:42;41.00;;;22.20;;
3683;SDS011;1858;48.716;9.648;2024-01-11T16:30:11;46.68;;;24.50;;
3683;SDS011;1858;48.716;9.648;2024-01-11T16:32:39;42.70;;;24.52;;
3683;SDS011;1858;48.716;9.648;2024-01-11T16:35:08;44.05;;;23.30;;
3683;SDS011;1858;48.716;9.648;2024-01-11T16:37:36;41.18;;;24.25;;
3683;SDS011;1858;48.716;9.648;2024-01-11T16:40:05;43.90;;;24.07;;
3683;SDS011;1858;48.716;9.648;2024-01-11T16:42:36;43.30;;;25.02;;
3683;SDS011;1858;48.716;9.648;2024-01-11T16:45:04;45.13;;;25.80;;
3683;SDS011;1858;48.716;9.648;2024-01-11T16:47:34;44.70;;;25.12;;
3683;SDS011;1858;48.716;9.648;2024-01-11T16:50:03;45.28;;;23.75;;
3683;SDS011;1858;48.716;9.648;2024-01-11T16:52:35;48.40;;;25.95;;
3683;SDS011;1858;48.716;9.648;2024-01-11T16:55:03;47.15;;;24.65;;
3683;SDS011;1858;48.716;9.648;2024-01-11T16:57:32;54.23;;;30.20;;
3683;SDS011;1858;48.716;9.648;2024-01-11T17:00:00;56.40;;;31.00;;
3683;SDS011;1858;48.716;9.648;2024-01-11T17:02:29;54.95;;;29.55;;
3683;SDS011;1858;48.716;9.648;2024-01-11T17:04:58;47.33;;;27.30;;
3683;SDS011;1858;48.716;9.648;2024-01-11T17:07:26;55.75;;;27.42;;